createdAt,value
2022-10-12T01:33:20.337Z,13.10
2022-10-12T01:36:15.045Z,12.20
2022-10-12T01:39:11.858Z,12.53
2022-10-12T01:42:05.535Z,12.60
2022-10-12T01:45:03.018Z,13.07
2022-10-12T01:47:55.164Z,12.93
2022-10-12T01:50:51.157Z,13.37
2022-10-12T01:53:46.116Z,12.73
2022-10-12T01:56:44.811Z,12.20
2022-10-12T01:59:42.578Z,12.07
2022-10-12T02:02:35.991Z,13.37
2022-10-12T02:05:37.585Z,12.93
2022-10-12T02:08:29.157Z,12.73
2022-10-12T02:11:19.092Z,11.90
2022-10-12T02:14:11.811Z,13.17
2022-10-12T02:17:01.724Z,13.57
2022-10-12T02:19:53.951Z,12.63
2022-10-12T02:22:45.356Z,13.93
2022-10-12T02:25:34.836Z,14.00
2022-10-12T02:28:26.631Z,13.73
2022-10-12T02:31:20.844Z,12.93
2022-10-12T02:34:14.271Z,13.00
2022-10-12T02:37:08.634Z,14.73
2022-10-12T02:40:04.259Z,14.97
2022-10-12T02:43:09.985Z,14.60
2022-10-12T02:46:01.042Z,14.43
2022-10-12T02:48:50.898Z,14.03
2022-10-12T02:51:40.477Z,13.87
2022-10-12T02:54:29.239Z,14.70
2022-10-12T02:57:18.811Z,14.63
2022-10-12T03:00:08.121Z,13.10
2022-10-12T03:02:56.158Z,14.03
2022-10-12T03:05:47.337Z,15.53
2022-10-12T03:08:35.342Z,14.37
2022-10-12T03:11:23.104Z,15.13
2022-10-12T03:14:15.076Z,14.80
2022-10-12T03:17:02.806Z,15.20
2022-10-12T03:19:50.803Z,15.73
2022-10-12T03:22:38.872Z,16.43
2022-10-12T03:25:26.658Z,16.50
2022-10-12T03:28:15.285Z,16.13
2022-10-12T03:31:05.176Z,16.10
2022-10-12T03:33:53.331Z,16.37
2022-10-12T03:36:41.245Z,16.90
2022-10-12T03:39:29.218Z,17.17
2022-10-12T03:42:16.991Z,15.73
2022-10-12T03:45:05.390Z,15.90
2022-10-12T03:47:54.548Z,15.53
2022-10-12T03:50:42.369Z,15.43
2022-10-12T03:53:31.336Z,17.77
2022-10-12T03:56:19.300Z,15.47
2022-10-12T03:59:07.241Z,15.33
2022-10-12T04:01:54.961Z,14.83
2022-10-12T04:04:44.373Z,15.37
2022-10-12T04:07:32.220Z,16.23
2022-10-12T04:10:20.158Z,16.33
2022-10-12T04:13:07.892Z,14.83
2022-10-12T04:15:55.967Z,14.93
2022-10-12T04:18:43.593Z,15.67
2022-10-12T04:21:33.387Z,14.80
2022-10-12T04:24:21.175Z,15.57
2022-10-12T04:27:09.100Z,15.70
2022-10-12T04:29:57.154Z,13.77
2022-10-12T04:32:45.693Z,15.73
2022-10-12T04:35:33.986Z,15.30
2022-10-12T04:38:22.947Z,15.37
2022-10-12T04:41:10.888Z,15.37
2022-10-12T04:43:59.074Z,15.97
2022-10-12T04:46:47.255Z,15.33
2022-10-12T04:49:35.081Z,15.00
2022-10-12T04:52:22.969Z,15.07
2022-10-12T04:55:12.362Z,16.07
2022-10-12T04:58:00.813Z,14.97
2022-10-12T05:00:49.695Z,14.80
2022-10-12T05:03:41.808Z,15.57
2022-10-12T05:06:29.716Z,15.10
2022-10-12T05:09:17.925Z,15.67
2022-10-12T05:12:07.961Z,15.33
2022-10-12T05:14:55.447Z,15.03
2022-10-12T05:17:43.282Z,14.20
2022-10-12T05:20:31.155Z,14.33
2022-10-12T05:23:19.510Z,14.77
2022-10-12T05:26:07.592Z,14.87
2022-10-12T05:28:56.611Z,14.77
2022-10-12T05:31:44.532Z,14.37
2022-10-12T05:34:32.846Z,15.37
2022-10-12T05:37:20.879Z,14.47
2022-10-12T05:40:09.396Z,15.10
2022-10-12T05:42:56.980Z,13.97
2022-10-12T05:45:45.995Z,14.20
2022-10-12T05:48:34.189Z,15.17
2022-10-12T05:51:26.554Z,16.30
2022-10-12T05:54:16.515Z,16.07
2022-10-12T05:57:04.333Z,15.50
2022-10-12T05:59:52.085Z,16.67
2022-10-12T06:02:41.413Z,16.90
2022-10-12T06:05:28.937Z,15.77
2022-10-12T06:08:16.908Z,17.77
2022-10-12T06:11:04.936Z,17.07
2022-10-12T06:13:54.397Z,17.13
2022-10-12T06:16:42.282Z,18.70
2022-10-12T06:27:54.849Z,21.80
2022-10-12T06:30:42.917Z,23.70
2022-10-12T06:53:08.116Z,22.83
2022-10-12T06:55:55.705Z,22.83
2022-10-12T06:58:43.332Z,23.67
2022-10-12T07:26:42.939Z,31.10
2022-10-12T07:32:18.686Z,34.20
2022-10-12T07:35:07.280Z,29.87
2022-10-12T07:37:58.417Z,29.17
2022-10-12T07:40:46.516Z,31.47
2022-10-12T07:43:35.622Z,32.30
2022-10-12T07:46:23.233Z,31.60
2022-10-12T07:49:13.513Z,30.57
2022-10-12T07:52:01.538Z,29.87
2022-10-12T07:54:49.086Z,28.27
2022-10-12T07:57:36.942Z,27.17
2022-10-12T08:00:26.839Z,27.40
2022-10-12T08:03:16.284Z,25.70
2022-10-12T08:06:10.917Z,25.92
2022-10-12T08:09:00.171Z,26.98
2022-10-12T08:11:47.767Z,22.45
2022-10-12T08:14:35.805Z,20.85
2022-10-12T08:17:25.374Z,22.30
2022-10-12T08:20:13.111Z,21.38
2022-10-12T08:23:01.044Z,21.00
2022-10-12T08:25:53.792Z,19.15
2022-10-12T08:28:42.396Z,19.10
2022-10-12T08:31:30.299Z,18.50
2022-10-12T08:34:19.868Z,18.23
2022-10-12T08:37:07.497Z,18.65
2022-10-12T08:39:58.585Z,18.50
2022-10-12T08:42:56.526Z,17.38
2022-10-12T08:45:52.407Z,16.25
2022-10-12T08:48:48.126Z,14.80
2022-10-12T08:51:46.884Z,14.63
2022-10-12T08:54:41.519Z,13.15
2022-10-12T08:57:29.349Z,14.15
2022-10-12T09:00:19.594Z,13.75
2022-10-12T09:03:16.035Z,12.38
2022-10-12T09:06:11.486Z,12.57
2022-10-12T09:09:09.975Z,13.13
2022-10-12T09:12:10.124Z,13.80
2022-10-12T09:15:03.114Z,13.00
2022-10-12T09:17:53.856Z,11.85
2022-10-12T09:20:45.650Z,10.93
2022-10-12T09:23:38.814Z,10.88
2022-10-12T09:26:36.417Z,10.45
2022-10-12T09:29:26.418Z,8.23
2022-10-12T09:32:40.754Z,9.10
2022-10-12T09:35:28.895Z,6.85
2022-10-12T09:38:16.512Z,6.78
2022-10-12T09:41:05.033Z,7.43
2022-10-12T09:43:56.747Z,8.52
2022-10-12T09:46:47.795Z,7.03
2022-10-12T09:49:43.833Z,7.45
2022-10-12T09:52:41.447Z,7.07
2022-10-12T09:55:29.986Z,6.78
2022-10-12T09:58:21.772Z,6.78
2022-10-12T10:01:21.590Z,7.00
2022-10-12T10:04:25.048Z,4.53
2022-10-12T10:07:27.365Z,5.50
2022-10-12T10:10:18.045Z,5.50
2022-10-12T10:13:06.755Z,5.95
2022-10-12T10:16:06.049Z,5.88
2022-10-12T10:18:59.518Z,4.85
2022-10-12T10:21:47.532Z,3.85
2022-10-12T10:24:35.325Z,5.10
2022-10-12T10:27:37.343Z,4.85
2022-10-12T10:30:33.841Z,3.50
2022-10-12T10:33:25.536Z,4.07
2022-10-12T10:36:21.584Z,2.75
2022-10-12T10:39:19.493Z,3.15
2022-10-12T10:42:11.470Z,2.80
2022-10-12T10:45:02.429Z,2.80
2022-10-12T10:47:54.569Z,2.97
2022-10-12T10:50:44.854Z,2.42
2022-10-12T10:53:44.833Z,2.53
2022-10-12T10:56:33.233Z,3.00
2022-10-12T10:59:28.460Z,2.53
2022-10-12T11:02:33.028Z,2.70
2022-10-12T11:05:25.229Z,2.60
2022-10-12T11:08:18.740Z,2.65
2022-10-12T11:11:13.746Z,2.70
2022-10-12T11:14:08.615Z,2.20
2022-10-12T11:17:00.250Z,2.10
2022-10-12T11:19:53.692Z,1.90
2022-10-12T11:22:49.509Z,2.00
2022-10-12T11:25:46.895Z,1.65
2022-10-12T11:28:39.257Z,1.83
2022-10-12T11:31:32.448Z,2.10
2022-10-12T11:34:23.776Z,2.40
2022-10-12T11:37:20.967Z,2.20
2022-10-12T11:40:23.579Z,2.55
2022-10-12T11:43:20.000Z,2.67
2022-10-12T11:46:13.700Z,2.55
2022-10-12T11:49:07.474Z,2.42
2022-10-12T11:52:00.520Z,2.22
2022-10-12T11:54:53.666Z,2.53
2022-10-12T11:57:41.803Z,2.40
2022-10-12T12:00:37.027Z,2.50
2022-10-12T12:03:33.796Z,2.28
2022-10-12T12:06:53.933Z,2.33
2022-10-12T12:09:49.366Z,2.50
2022-10-12T12:12:58.615Z,2.20
2022-10-12T12:16:24.206Z,1.90
2022-10-12T12:19:41.669Z,2.50
2022-10-12T12:22:33.021Z,2.38
2022-10-12T12:25:35.854Z,2.60
2022-10-12T12:28:25.823Z,2.10
2022-10-12T12:31:17.702Z,2.45
2022-10-12T12:34:08.241Z,2.38
2022-10-12T12:36:58.598Z,2.93
2022-10-12T12:39:52.658Z,2.85
2022-10-12T12:42:41.622Z,2.88
2022-10-12T12:45:55.375Z,2.80
2022-10-12T12:49:04.061Z,3.70
2022-10-12T12:51:55.301Z,3.22
2022-10-12T12:54:53.312Z,3.30
2022-10-12T12:58:04.810Z,3.35
2022-10-12T13:01:04.634Z,4.13
2022-10-12T13:04:33.766Z,3.05
2022-10-12T13:07:54.635Z,3.10
2022-10-12T13:11:01.834Z,3.35
2022-10-12T13:14:00.729Z,2.95
2022-10-12T13:17:31.722Z,2.97
2022-10-12T13:20:19.477Z,2.42
2022-10-12T13:23:11.157Z,3.00
2022-10-12T13:26:04.380Z,2.47
2022-10-12T13:28:53.468Z,2.78
2022-10-12T13:31:45.570Z,2.63
2022-10-12T13:34:42.729Z,2.33
2022-10-12T13:37:33.102Z,2.60
2022-10-12T13:40:31.269Z,2.35
2022-10-12T13:43:25.505Z,2.40
2022-10-12T13:46:14.988Z,2.15
2022-10-12T13:49:03.695Z,2.33
2022-10-12T13:51:53.306Z,2.72
2022-10-12T13:54:42.498Z,2.70
2022-10-12T13:57:41.029Z,2.53
2022-10-12T14:00:31.091Z,2.45
2022-10-12T14:03:18.877Z,2.40
2022-10-12T14:06:07.519Z,2.42
2022-10-12T14:08:58.282Z,2.47
2022-10-12T14:11:47.739Z,2.58
2022-10-12T14:14:37.858Z,2.50
2022-10-12T14:17:27.462Z,2.60
2022-10-12T14:20:18.523Z,2.50
2022-10-12T14:23:13.748Z,2.28
2022-10-12T14:26:02.183Z,2.30
2022-10-12T14:28:50.000Z,2.50
2022-10-12T14:31:55.516Z,2.03
2022-10-12T14:34:46.993Z,2.50
2022-10-12T14:37:34.777Z,2.38
2022-10-12T14:40:30.474Z,2.40
2022-10-12T14:43:24.786Z,2.42
2022-10-12T14:46:12.497Z,2.40
2022-10-12T14:49:00.213Z,2.53
2022-10-12T14:51:50.805Z,2.55
2022-10-12T14:54:38.750Z,2.40
2022-10-12T14:57:29.101Z,2.10
2022-10-12T15:00:18.532Z,2.03
2022-10-12T15:03:06.430Z,2.17
2022-10-12T15:05:54.090Z,2.28
2022-10-12T15:08:44.218Z,2.75
2022-10-12T15:11:32.004Z,2.42
2022-10-12T15:14:19.507Z,2.20
2022-10-12T15:17:07.446Z,2.35
2022-10-12T15:19:55.506Z,2.85
2022-10-12T15:22:44.851Z,2.50
2022-10-12T15:25:43.647Z,2.53
2022-10-12T15:28:31.885Z,2.70
2022-10-12T15:31:19.845Z,2.70
2022-10-12T15:34:13.467Z,3.22
2022-10-12T15:37:04.161Z,2.50
2022-10-12T15:39:54.362Z,2.20
2022-10-12T15:42:43.830Z,1.83
2022-10-12T15:45:36.074Z,2.22
2022-10-12T15:48:24.057Z,2.90
2022-10-12T15:51:19.295Z,2.65
2022-10-12T15:54:07.584Z,2.13
2022-10-12T16:05:22.646Z,3.20
2022-10-12T16:16:42.927Z,2.75
2022-10-12T16:22:18.866Z,2.45
2022-10-12T16:25:08.821Z,2.75
2022-10-12T16:27:57.913Z,2.92
2022-10-12T16:30:46.050Z,2.90
2022-10-12T16:33:35.998Z,2.78
2022-10-12T16:36:23.789Z,2.90
2022-10-12T16:39:11.403Z,2.42
2022-10-12T16:41:59.262Z,2.45
2022-10-12T16:44:47.304Z,2.42
2022-10-12T16:47:38.855Z,2.85
2022-10-12T16:50:32.381Z,2.75
2022-10-12T16:53:20.355Z,2.90
2022-10-12T16:56:08.334Z,2.55
2022-10-12T16:58:55.957Z,2.70
2022-10-12T17:01:43.845Z,2.75
2022-10-12T17:04:31.739Z,3.97
2022-10-12T17:07:21.276Z,3.40
2022-10-12T17:10:10.237Z,3.22
2022-10-12T17:12:58.040Z,3.63
2022-10-12T17:15:45.897Z,3.72
2022-10-12T17:18:33.797Z,3.10
2022-10-12T17:21:21.657Z,3.25
2022-10-12T17:24:12.945Z,3.75
2022-10-12T17:27:01.122Z,3.47
2022-10-12T17:41:02.429Z,6.30
2022-10-12T17:43:51.435Z,8.07
2022-10-12T17:46:39.648Z,7.90
2022-10-12T17:49:28.059Z,9.30
2022-10-12T17:52:16.196Z,10.05
2022-10-12T17:55:04.235Z,10.07
2022-10-12T17:57:53.517Z,11.18
2022-10-12T18:00:41.567Z,9.67
2022-10-12T18:03:29.491Z,10.03
2022-10-12T18:06:20.403Z,8.70
